createdAt,value
2018-08-19T00:01:27.845Z,99049.36
2018-08-19T00:03:56.266Z,99048.69
2018-08-19T00:06:25.081Z,99047.33
2018-08-19T00:08:56.454Z,99044.94
2018-08-19T00:11:25.102Z,99047.52
2018-08-19T00:13:53.561Z,99052.62
2018-08-19T00:16:22.009Z,99055.34
2018-08-19T00:18:50.441Z,99054.50
2018-08-19T00:21:18.945Z,99056.34
2018-08-19T00:23:49.288Z,99057.87
2018-08-19T00:26:17.814Z,99059.55
2018-08-19T00:28:46.336Z,99058.55
2018-08-19T00:31:14.820Z,99056.86
2018-08-19T00:33:43.274Z,99060.61
2018-08-19T00:36:24.825Z,99060.29
2018-08-19T00:38:53.837Z,99059.45
2018-08-19T00:41:22.280Z,99056.89
2018-08-19T00:43:50.905Z,99060.64
2018-08-19T00:46:29.164Z,99057.11
2018-08-19T00:48:58.404Z,99052.36
2018-08-19T00:51:27.539Z,99059.98
2018-08-19T00:53:56.413Z,99055.40
2018-08-19T00:56:25.909Z,99052.71
2018-08-19T00:58:54.505Z,99055.94
2018-08-19T01:01:35.490Z,99053.90
2018-08-19T01:04:05.370Z,99060.00
2018-08-19T01:06:40.565Z,99063.39
2018-08-19T01:09:09.713Z,99069.83
2018-08-19T01:11:39.766Z,99073.73
2018-08-19T01:14:10.479Z,99071.19
2018-08-19T01:16:39.062Z,99070.53
2018-08-19T01:19:08.357Z,99071.20
2018-08-19T01:21:36.933Z,99069.50
2018-08-19T01:24:08.754Z,99067.80
2018-08-19T01:26:39.494Z,99073.22
2018-08-19T01:29:09.351Z,99068.84
2018-08-19T01:31:38.027Z,99070.19
2018-08-19T01:34:07.657Z,99070.33
2018-08-19T01:36:36.137Z,99073.05
2018-08-19T01:39:07.750Z,99072.20
2018-08-19T01:41:36.876Z,99070.14
2018-08-19T01:44:14.882Z,99072.83
2018-08-19T01:46:48.025Z,99066.84
2018-08-19T01:49:16.669Z,99062.74
2018-08-19T01:51:45.573Z,99061.90
2018-08-19T01:54:19.367Z,99064.22
2018-08-19T01:56:51.873Z,99063.53
2018-08-19T01:59:20.392Z,99066.25
2018-08-19T02:01:51.062Z,99063.89
2018-08-19T02:04:20.137Z,99075.76
2018-08-19T02:06:48.576Z,99068.65
2018-08-19T02:09:18.245Z,99068.01
2018-08-19T02:11:48.650Z,99076.84
2018-08-19T02:14:17.982Z,99077.87
2018-08-19T02:16:47.116Z,99079.58
2018-08-19T02:19:15.661Z,99074.16
2018-08-19T02:21:44.733Z,99077.91
2018-08-19T02:24:13.744Z,99074.64
2018-08-19T02:26:42.289Z,99076.52
2018-08-19T02:29:27.385Z,99069.89
2018-08-19T02:32:01.905Z,99077.84
2018-08-19T02:34:32.374Z,99072.76
2018-08-19T02:37:08.121Z,99069.69
2018-08-19T02:39:39.768Z,99071.76
2018-08-19T02:42:26.689Z,99071.08
2018-08-19T02:45:02.171Z,99066.17
2018-08-19T02:47:31.089Z,99059.06
2018-08-19T02:49:59.586Z,99063.81
2018-08-19T02:52:29.233Z,99056.54
2018-08-19T02:54:59.627Z,99059.28
2018-08-19T02:57:29.224Z,99056.89
2018-08-19T02:59:58.645Z,99059.97
2018-08-19T03:02:28.855Z,99057.95
2018-08-19T03:04:58.449Z,99057.11
2018-08-19T03:07:29.554Z,99060.02
2018-08-19T03:10:05.562Z,99061.55
2018-08-19T03:12:34.338Z,99063.06
2018-08-19T03:15:03.065Z,99057.28
2018-08-19T03:17:32.418Z,99058.64
2018-08-19T03:20:01.449Z,99062.05
2018-08-19T03:22:30.622Z,99058.16
2018-08-19T03:25:00.406Z,99060.37
2018-08-19T03:27:28.854Z,99059.34
2018-08-19T03:30:02.611Z,99058.33
2018-08-19T03:32:31.054Z,99061.02
2018-08-19T03:35:07.691Z,99061.03
2018-08-19T03:37:37.388Z,99061.02
2018-08-19T03:40:06.778Z,99066.80
2018-08-19T03:42:35.258Z,99068.50
2018-08-19T03:45:09.056Z,99069.69
2018-08-19T03:47:37.508Z,99070.52
2018-08-19T03:50:11.233Z,99070.53
2018-08-19T03:52:41.325Z,99078.32
2018-08-19T03:55:14.014Z,99072.20
2018-08-19T03:57:42.469Z,99062.70
2018-08-19T04:00:13.313Z,99071.69
2018-08-19T04:02:41.773Z,99073.70
2018-08-19T04:05:10.417Z,99070.91
2018-08-19T04:07:38.885Z,99076.84
2018-08-19T04:10:07.374Z,99075.98
2018-08-19T04:12:35.803Z,99081.89
2018-08-19T04:15:06.200Z,99082.22
2018-08-19T04:17:34.826Z,99083.06
2018-08-19T04:20:03.487Z,99081.91
2018-08-19T04:22:31.994Z,99088.98
2018-08-19T04:25:00.594Z,99084.92
2018-08-19T04:27:28.998Z,99084.61
2018-08-19T04:29:57.499Z,99090.73
2018-08-19T04:32:31.741Z,99089.61
2018-08-19T04:35:01.062Z,99082.01
2018-08-19T04:37:30.011Z,99085.41
2018-08-19T04:39:59.706Z,99084.92
2018-08-19T04:42:28.169Z,99081.38
2018-08-19T04:44:56.626Z,99085.77
2018-08-19T04:47:34.846Z,99083.58
2018-08-19T04:50:03.349Z,99088.83
2018-08-19T04:52:33.037Z,99091.20
2018-08-19T04:55:01.621Z,99093.42
2018-08-19T04:57:30.037Z,99090.02
2018-08-19T04:59:58.660Z,99094.27
2018-08-19T05:02:27.376Z,99099.33
2018-08-19T05:04:55.866Z,99091.03
2018-08-19T05:07:24.311Z,99093.20
2018-08-19T05:09:52.796Z,99095.41
2018-08-19T05:12:21.318Z,99099.64
2018-08-19T05:14:49.836Z,99100.16
2018-08-19T05:17:18.241Z,99103.72
2018-08-19T05:19:46.705Z,99104.02
2018-08-19T05:22:15.722Z,99103.17
2018-08-19T05:24:45.729Z,99105.73
2018-08-19T05:27:14.893Z,99106.73
2018-08-19T05:29:43.297Z,99108.05
2018-08-19T05:32:14.191Z,99109.73
2018-08-19T05:34:42.925Z,99112.42
2018-08-19T05:37:11.546Z,99114.42
2018-08-19T05:39:45.121Z,99106.75
2018-08-19T05:42:14.214Z,99119.69
2018-08-19T05:44:43.291Z,99118.32
2018-08-19T05:47:15.403Z,99121.67
2018-08-19T05:49:44.965Z,99117.44
2018-08-19T05:52:20.369Z,99116.86
2018-08-19T05:55:03.585Z,99121.77
2018-08-19T05:57:34.309Z,99121.25
2018-08-19T06:00:07.995Z,99126.16
2018-08-19T06:02:42.507Z,99125.11
2018-08-19T06:05:11.030Z,99132.06
2018-08-19T06:07:39.615Z,99131.33
2018-08-19T06:10:08.337Z,99136.56
2018-08-19T06:12:36.766Z,99136.80
2018-08-19T06:15:05.870Z,99133.02
2018-08-19T06:17:34.418Z,99125.14
2018-08-19T06:20:02.987Z,99131.85
2018-08-19T06:22:39.593Z,99127.70
2018-08-19T06:25:08.257Z,99131.06
2018-08-19T06:27:48.933Z,99131.66
2018-08-19T06:30:18.331Z,99128.56
2018-08-19T06:32:47.093Z,99128.96
2018-08-19T06:35:15.711Z,99132.83
2018-08-19T06:37:44.266Z,99126.48
2018-08-19T06:40:14.822Z,99129.20
2018-08-19T06:42:43.427Z,99140.66
2018-08-19T06:45:12.790Z,99140.44
2018-08-19T06:47:41.510Z,99141.73
2018-08-19T06:50:21.026Z,99131.98
2018-08-19T06:52:50.818Z,99132.30
2018-08-19T06:55:19.875Z,99133.05
2018-08-19T06:57:48.484Z,99141.25
2018-08-19T07:00:24.187Z,99140.33
2018-08-19T07:02:52.993Z,99141.86
2018-08-19T07:05:21.844Z,99137.52
2018-08-19T07:07:50.329Z,99140.70
2018-08-19T07:10:37.238Z,99146.67
2018-08-19T07:13:10.427Z,99143.91
2018-08-19T07:15:40.363Z,99141.87
2018-08-19T07:18:10.794Z,99151.46
2018-08-19T07:20:40.718Z,99141.35
2018-08-19T07:23:09.925Z,99151.30
2018-08-19T07:25:39.503Z,99145.89
2018-08-19T07:28:09.649Z,99150.56
2018-08-19T07:30:38.493Z,99149.03
2018-08-19T07:33:07.241Z,99147.44
2018-08-19T07:35:35.757Z,99157.25
2018-08-19T07:38:04.488Z,99150.66
2018-08-19T07:40:33.250Z,99155.41
2018-08-19T07:43:01.997Z,99162.31
2018-08-19T07:45:30.433Z,99146.03
2018-08-19T07:47:59.031Z,99143.52
2018-08-19T07:50:28.245Z,99139.48
2018-08-19T07:52:56.745Z,99139.92
2018-08-19T07:55:26.429Z,99143.57
2018-08-19T07:57:54.905Z,99145.02
2018-08-19T08:00:27.548Z,99142.73
2018-08-19T08:02:55.975Z,99140.16
2018-08-19T08:05:26.879Z,99135.66
2018-08-19T08:07:55.362Z,99134.97
2018-08-19T08:10:23.901Z,99144.73
2018-08-19T08:12:56.289Z,99138.64
2018-08-19T08:15:24.800Z,99142.03
2018-08-19T08:17:53.406Z,99140.72
2018-08-19T08:20:21.914Z,99135.92
2018-08-19T08:22:50.422Z,99141.75
2018-08-19T08:25:18.917Z,99136.27
2018-08-19T08:27:47.326Z,99143.45
2018-08-19T08:30:15.882Z,99139.40
2018-08-19T08:32:46.673Z,99142.32
2018-08-19T08:35:15.173Z,99136.40
2018-08-19T08:37:43.693Z,99142.75
2018-08-19T08:40:12.694Z,99140.92
2018-08-19T08:42:43.465Z,99136.92
2018-08-19T08:45:13.265Z,99139.09
2018-08-19T08:47:42.242Z,99138.55
2018-08-19T08:50:12.267Z,99133.43
2018-08-19T08:52:43.601Z,99125.80
2018-08-19T08:55:13.017Z,99129.58
2018-08-19T08:57:41.674Z,99128.26
2018-08-19T09:00:11.453Z,99120.95
2018-08-19T09:02:39.970Z,99123.65
2018-08-19T09:05:10.648Z,99120.69
2018-08-19T09:07:39.792Z,99121.41
2018-08-19T09:10:08.541Z,99121.00
2018-08-19T09:12:50.697Z,99129.63
2018-08-19T09:15:19.310Z,99122.59
2018-08-19T09:17:47.902Z,99122.02
2018-08-19T09:20:16.389Z,99120.57
2018-08-19T09:22:45.756Z,99117.90
2018-08-19T09:25:14.310Z,99118.50
2018-08-19T09:27:43.493Z,99116.39
2018-08-19T09:30:47.661Z,99120.16
2018-08-19T09:33:16.173Z,99114.91
2018-08-19T09:35:44.949Z,99115.45
2018-08-19T09:38:16.667Z,99112.16
2018-08-19T09:40:45.564Z,99113.54
2018-08-19T09:43:14.398Z,99116.35
2018-08-19T09:45:43.273Z,99113.67
2018-08-19T09:48:12.442Z,99111.83
2018-08-19T09:50:41.565Z,99105.59
2018-08-19T09:53:10.115Z,99112.13
2018-08-19T09:55:39.626Z,99105.62
2018-08-19T09:58:12.580Z,99103.02
2018-08-19T10:00:46.350Z,99102.66
2018-08-19T10:03:14.877Z,99092.83
2018-08-19T10:05:43.442Z,99095.66
2018-08-19T10:08:11.964Z,99086.39
2018-08-19T10:10:40.450Z,99089.84
2018-08-19T10:13:09.074Z,99086.08
2018-08-19T10:15:38.010Z,99081.95
2018-08-19T10:18:08.603Z,99081.67
2018-08-19T10:20:37.119Z,99076.61
2018-08-19T10:23:06.011Z,99073.64
2018-08-19T10:25:34.617Z,99075.14
2018-08-19T10:28:03.775Z,99075.02
2018-08-19T10:30:32.282Z,99078.98
2018-08-19T10:33:07.110Z,99076.88
2018-08-19T10:35:35.874Z,99072.69
2018-08-19T10:38:04.876Z,99074.55
2018-08-19T10:40:33.413Z,99071.33
2018-08-19T10:43:05.495Z,99062.42
2018-08-19T10:45:37.103Z,99069.09
2018-08-19T10:48:07.208Z,99062.98
2018-08-19T10:50:35.711Z,99058.25
2018-08-19T10:53:06.480Z,99061.85
2018-08-19T10:55:35.046Z,99055.20
2018-08-19T10:58:03.642Z,99053.22
2018-08-19T11:00:32.798Z,99049.30
2018-08-19T11:03:12.762Z,99048.42
2018-08-19T11:05:42.794Z,99041.70
2018-08-19T11:08:12.012Z,99039.14
2018-08-19T11:10:40.545Z,99043.80
2018-08-19T11:13:09.029Z,99047.06
2018-08-19T11:15:49.413Z,99042.05
2018-08-19T11:18:30.757Z,99045.58
2018-08-19T11:21:02.462Z,99040.97
2018-08-19T11:23:30.886Z,99031.45
2018-08-19T11:25:59.517Z,99031.38
2018-08-19T11:28:40.860Z,99027.36
2018-08-19T11:31:20.652Z,99016.71
2018-08-19T11:33:49.476Z,99018.80
2018-08-19T11:36:18.170Z,99015.76
2018-08-19T11:38:48.536Z,99012.89
2018-08-19T11:41:17.722Z,99010.87
2018-08-19T11:43:47.190Z,99003.53
2018-08-19T11:46:15.677Z,99010.23
2018-08-19T11:48:44.467Z,99003.06
2018-08-19T11:51:13.257Z,99006.29
2018-08-19T11:53:41.749Z,99004.44
2018-08-19T11:56:10.337Z,98998.02
2018-08-19T11:58:46.638Z,98997.41
2018-08-19T12:01:18.477Z,98989.63
2018-08-19T12:04:04.992Z,98992.59
2018-08-19T12:06:34.117Z,98987.50
2018-08-19T12:09:04.753Z,98982.52
2018-08-19T12:11:38.789Z,98984.30
2018-08-19T12:14:09.397Z,98984.53
2018-08-19T12:16:45.212Z,98985.25
2018-08-19T12:19:19.117Z,98986.92
2018-08-19T12:22:05.725Z,98984.23
2018-08-19T12:24:43.427Z,98988.36
2018-08-19T12:27:13.379Z,98985.80
2018-08-19T12:29:42.696Z,98978.17
2018-08-19T12:32:15.852Z,98978.60
2018-08-19T12:34:47.618Z,98977.25
2018-08-19T12:37:17.293Z,98963.03
2018-08-19T12:39:45.930Z,98966.53
2018-08-19T12:42:14.517Z,98965.11
2018-08-19T12:44:43.171Z,98954.25
2018-08-19T12:47:14.833Z,98952.69
2018-08-19T12:49:46.994Z,98942.49
2018-08-19T12:52:17.977Z,98948.13
2018-08-19T12:54:49.965Z,98955.02
2018-08-19T12:57:18.598Z,98941.83
2018-08-19T12:59:47.163Z,98937.92
2018-08-19T13:02:15.633Z,98938.94
2018-08-19T13:04:44.095Z,98940.91
2018-08-19T13:07:14.130Z,98936.53
2018-08-19T13:09:42.610Z,98940.34
2018-08-19T13:12:12.553Z,98935.43
2018-08-19T13:14:41.106Z,98933.18
2018-08-19T13:17:09.659Z,98919.44
2018-08-19T13:19:38.146Z,98931.32
2018-08-19T13:22:06.594Z,98929.83
2018-08-19T13:24:36.726Z,98920.22
2018-08-19T13:27:06.037Z,98921.31
2018-08-19T13:29:36.291Z,98919.14
2018-08-19T13:32:04.917Z,98915.12
2018-08-19T13:34:33.647Z,98907.66
2018-08-19T13:37:02.150Z,98910.47
2018-08-19T13:39:30.636Z,98905.01
2018-08-19T13:41:59.108Z,98904.84
2018-08-19T13:44:27.758Z,98900.77
2018-08-19T13:46:56.234Z,98898.64
2018-08-19T13:49:29.131Z,98898.44
2018-08-19T13:52:02.173Z,98894.56
2018-08-19T13:54:30.679Z,98887.06
2018-08-19T13:57:00.294Z,98889.49
2018-08-19T13:59:28.857Z,98885.72
2018-08-19T14:01:57.391Z,98890.09
2018-08-19T14:04:26.084Z,98885.98
2018-08-19T14:06:54.554Z,98871.22
2018-08-19T14:09:23.099Z,98880.04
2018-08-19T14:11:51.612Z,98876.83
2018-08-19T14:14:20.309Z,98876.95
2018-08-19T14:16:48.994Z,98875.80
2018-08-19T14:19:17.474Z,98859.41
2018-08-19T14:21:46.018Z,98865.51
2018-08-19T14:24:14.533Z,98863.61
2018-08-19T14:26:43.287Z,98858.18
2018-08-19T14:29:12.162Z,98855.95
2018-08-19T14:31:40.925Z,98861.56
2018-08-19T14:34:09.437Z,98849.02
2018-08-19T14:36:37.897Z,98858.14
2018-08-19T14:39:07.107Z,98856.04
2018-08-19T14:41:35.678Z,98857.80
2018-08-19T14:44:04.548Z,98853.76
2018-08-19T14:46:33.939Z,98851.31
2018-08-19T14:49:05.558Z,98856.22
2018-08-19T14:51:50.198Z,98847.03
2018-08-19T14:54:19.086Z,98848.29
2018-08-19T14:56:47.658Z,98847.13
2018-08-19T14:59:16.289Z,98836.65
2018-08-19T15:01:45.601Z,98840.83
2018-08-19T15:04:15.887Z,98838.88
2018-08-19T15:06:45.339Z,98829.01
2018-08-19T15:09:18.316Z,98833.68
2018-08-19T15:11:47.644Z,98828.75
2018-08-19T15:14:18.383Z,98837.80
2018-08-19T15:16:49.151Z,98826.61
2018-08-19T15:19:17.615Z,98829.92
2018-08-19T15:21:52.977Z,98823.27
2018-08-19T15:24:21.425Z,98830.16
2018-08-19T15:26:49.904Z,98822.70
2018-08-19T15:29:36.942Z,98824.34
2018-08-19T15:32:05.753Z,98821.64
2018-08-19T15:34:34.202Z,98818.25
2018-08-19T15:37:02.691Z,98811.77
2018-08-19T15:39:31.297Z,98816.49
2018-08-19T15:41:59.809Z,98819.36
2018-08-19T15:44:29.103Z,98814.28
2018-08-19T15:46:57.908Z,98814.84
2018-08-19T15:49:26.664Z,98818.73
2018-08-19T15:51:55.281Z,98809.73
2018-08-19T15:54:23.842Z,98803.33
2018-08-19T15:56:52.405Z,98791.33
2018-08-19T15:59:20.890Z,98797.78
2018-08-19T16:01:49.487Z,98797.62
2018-08-19T16:04:21.076Z,98794.12
2018-08-19T16:06:53.440Z,98794.91
2018-08-19T16:09:23.366Z,98790.59
2018-08-19T16:11:52.448Z,98795.58
2018-08-19T16:14:31.326Z,98792.22
2018-08-19T16:17:03.681Z,98782.90
2018-08-19T16:19:32.183Z,98792.67
2018-08-19T16:22:01.178Z,98786.88
2018-08-19T16:24:29.908Z,98790.19
2018-08-19T16:26:58.555Z,98787.03
2018-08-19T16:29:27.393Z,98785.58
2018-08-19T16:31:56.138Z,98785.16
2018-08-19T16:34:24.784Z,98786.95
2018-08-19T16:36:53.401Z,98787.09
2018-08-19T16:39:22.410Z,98789.91
2018-08-19T16:41:50.873Z,98786.68
2018-08-19T16:51:18.725Z,98781.04
2018-08-19T16:53:47.254Z,98771.55
2018-08-19T16:56:15.726Z,98777.06
2018-08-19T16:58:44.221Z,98770.31
2018-08-19T17:01:12.934Z,98771.38
2018-08-19T17:03:41.874Z,98770.48
2018-08-19T17:06:12.977Z,98764.73
2018-08-19T17:08:42.003Z,98758.36
2018-08-19T17:11:12.105Z,98760.13
2018-08-19T17:13:40.901Z,98760.92
2018-08-19T17:16:09.805Z,98754.44
2018-08-19T17:18:38.330Z,98760.45
2018-08-19T17:21:07.332Z,98755.48
2018-08-19T17:23:36.081Z,98756.36
2018-08-19T17:26:17.288Z,98758.73
2018-08-19T17:28:45.700Z,98758.33
2018-08-19T17:31:14.217Z,98755.77
2018-08-19T17:33:42.790Z,98766.37
2018-08-19T17:36:11.317Z,98760.48
2018-08-19T17:38:39.778Z,98769.34
2018-08-19T17:41:08.177Z,98766.50
2018-08-19T17:43:41.538Z,98771.16
2018-08-19T17:46:12.090Z,98768.00
2018-08-19T17:48:41.664Z,98774.79
2018-08-19T17:51:22.541Z,98778.94
2018-08-19T17:53:51.437Z,98778.23
2018-08-19T17:56:20.609Z,98777.05
2018-08-19T17:58:49.922Z,98781.70
2018-08-19T18:01:18.526Z,98786.99
2018-08-19T18:03:47.085Z,98789.36
2018-08-19T18:06:15.518Z,98789.09
2018-08-19T18:08:47.893Z,98791.00
2018-08-19T18:11:16.638Z,98794.17
2018-08-19T18:13:45.185Z,98793.14
2018-08-19T18:16:14.398Z,98798.42
2018-08-19T18:18:42.937Z,98802.60
2018-08-19T18:21:11.503Z,98797.78
2018-08-19T18:23:43.437Z,98798.42
2018-08-19T18:26:11.858Z,98802.45
2018-08-19T18:28:42.133Z,98810.37
2018-08-19T18:31:10.713Z,98809.92
2018-08-19T18:33:45.389Z,98808.78
2018-08-19T18:36:13.851Z,98808.70
2018-08-19T18:38:42.310Z,98807.74
2018-08-19T18:41:17.738Z,98817.31
2018-08-19T18:43:46.777Z,98811.79
2018-08-19T18:46:15.389Z,98809.33
2018-08-19T18:48:44.314Z,98809.84
2018-08-19T18:51:13.312Z,98821.88
2018-08-19T18:53:41.821Z,98821.72
2018-08-19T18:56:10.525Z,98821.55
2018-08-19T18:58:41.135Z,98829.75
2018-08-19T19:01:10.781Z,98829.22
2018-08-19T19:03:39.554Z,98822.75
2018-08-19T19:06:08.568Z,98835.25
2018-08-19T19:08:37.030Z,98831.79
2018-08-19T19:11:06.202Z,98833.38
2018-08-19T19:13:35.845Z,98836.81
2018-08-19T19:16:04.350Z,98836.73
2018-08-19T19:18:32.810Z,98838.65
2018-08-19T19:21:03.398Z,98847.19
2018-08-19T19:23:33.737Z,98849.14
2018-08-19T19:26:03.846Z,98851.16
2018-08-19T19:28:32.701Z,98845.00
2018-08-19T19:31:06.409Z,98844.61
2018-08-19T19:33:35.717Z,98848.61
2018-08-19T19:36:09.622Z,98850.31
2018-08-19T19:38:45.342Z,98849.68
2018-08-19T19:41:14.093Z,98846.11
2018-08-19T19:43:42.782Z,98850.22
2018-08-19T19:46:11.593Z,98854.64
2018-08-19T19:48:40.061Z,98854.34
2018-08-19T19:51:08.813Z,98858.53
2018-08-19T19:53:37.327Z,98856.73
2018-08-19T19:56:12.742Z,98863.36
2018-08-19T19:58:42.355Z,98861.75
2018-08-19T20:01:11.189Z,98860.16
2018-08-19T20:03:44.123Z,98862.04
2018-08-19T20:06:13.274Z,98858.97
2018-08-19T20:08:41.996Z,98853.48
2018-08-19T20:11:16.912Z,98855.60
2018-08-19T20:13:45.338Z,98855.77
2018-08-19T20:16:13.945Z,98856.18
2018-08-19T20:18:42.455Z,98858.69
2018-08-19T20:21:16.101Z,98864.14
2018-08-19T20:23:44.888Z,98860.66
2018-08-19T20:26:13.593Z,98860.84
2018-08-19T20:28:42.274Z,98862.16
2018-08-19T20:31:10.738Z,98863.45
2018-08-19T20:33:39.331Z,98867.66
2018-08-19T20:36:07.889Z,98867.89
2018-08-19T20:38:36.530Z,98872.40
2018-08-19T20:41:05.170Z,98869.86
2018-08-19T20:43:33.786Z,98873.94
2018-08-19T20:46:02.330Z,98872.39
2018-08-19T20:48:30.780Z,98870.14
2018-08-19T20:50:59.339Z,98877.77
2018-08-19T20:53:28.453Z,98872.37
2018-08-19T20:55:57.114Z,98875.48
2018-08-19T20:58:27.195Z,98876.06
2018-08-19T21:00:55.702Z,98885.23
2018-08-19T21:03:24.289Z,98884.67
2018-08-19T21:05:52.766Z,98878.45
2018-08-19T21:08:21.321Z,98881.13
2018-08-19T21:10:50.236Z,98876.05
2018-08-19T21:13:19.987Z,98880.02
2018-08-19T21:15:53.879Z,98888.84
2018-08-19T21:18:22.326Z,98881.00
2018-08-19T21:20:50.949Z,98891.84
2018-08-19T21:23:19.454Z,98891.27
2018-08-19T21:25:53.159Z,98892.38
2018-08-19T21:28:21.804Z,98894.17
2018-08-19T21:30:50.318Z,98891.13
2018-08-19T21:33:18.793Z,98897.38
2018-08-19T21:35:50.078Z,98896.89
2018-08-19T21:38:18.663Z,98898.78
2018-08-19T21:40:47.156Z,98897.60
2018-08-19T21:43:15.677Z,98897.20
2018-08-19T21:45:44.154Z,98896.11
2018-08-19T21:48:15.129Z,98890.55
2018-08-19T21:50:43.749Z,98902.03
2018-08-19T21:53:15.430Z,98900.03
2018-08-19T21:55:45.025Z,98899.69
2018-08-19T21:58:13.554Z,98898.51
2018-08-19T22:00:44.645Z,98903.90
2018-08-19T22:03:21.377Z,98903.34
2018-08-19T22:05:51.156Z,98908.34
2018-08-19T22:08:19.734Z,98909.92
2018-08-19T22:10:48.968Z,98913.59
2018-08-19T22:13:17.474Z,98907.70
2018-08-19T22:15:46.741Z,98907.99
2018-08-19T22:18:23.129Z,98917.45
2018-08-19T22:21:08.508Z,98917.53
2018-08-19T22:23:42.364Z,98916.10
2018-08-19T22:26:11.841Z,98921.95
2018-08-19T22:28:40.773Z,98918.19
2018-08-19T22:31:21.193Z,98916.27
2018-08-19T22:33:54.893Z,98912.50
2018-08-19T22:36:23.293Z,98918.11
2018-08-19T22:38:52.713Z,98918.34
2018-08-19T22:41:23.936Z,98914.81
2018-08-19T22:43:53.358Z,98919.41
2018-08-19T22:46:21.784Z,98917.88
2018-08-19T22:48:52.096Z,98919.96
2018-08-19T22:51:20.853Z,98922.39
2018-08-19T22:53:54.890Z,98924.82
2018-08-19T22:56:23.747Z,98930.61
2018-08-19T22:58:52.353Z,98926.61
2018-08-19T23:01:21.062Z,98926.47
2018-08-19T23:03:53.972Z,98919.23
2018-08-19T23:06:22.490Z,98920.96
2018-08-19T23:08:50.961Z,98926.25
2018-08-19T23:11:19.492Z,98914.05
2018-08-19T23:13:59.097Z,98922.56
2018-08-19T23:16:28.025Z,98916.31
2018-08-19T23:18:56.641Z,98914.67
2018-08-19T23:21:25.102Z,98909.47
2018-08-19T23:23:53.619Z,98913.94
2018-08-19T23:26:22.150Z,98914.01
2018-08-19T23:28:50.671Z,98917.58
2018-08-19T23:31:19.206Z,98918.98
2018-08-19T23:33:47.706Z,98928.13
2018-08-19T23:36:16.201Z,98921.23
2018-08-19T23:38:44.622Z,98919.37
2018-08-19T23:41:13.159Z,98921.09
2018-08-19T23:43:41.598Z,98915.66
2018-08-19T23:46:10.149Z,98905.86
2018-08-19T23:48:38.573Z,98914.57
2018-08-19T23:51:09.269Z,98906.64
2018-08-19T23:53:37.806Z,98909.20
2018-08-19T23:56:06.393Z,98912.27
2018-08-19T23:58:34.847Z,98910.76
